Time;durP1;ratioP1;P1;durP2;ratioP2;P2;SDS_P1;SDS_P2;PMS_P1;PMS_P2;Temp;Humidity;BMP_temperature;BMP_pressure;BME280_temperature;BME280_humidity;BME280_pressure;Samples;Min_cycle;Max_cycle;Signal;HPM_P1;HPM_P2
2022/12/21 00:03:31;;;;;;;;;;;16.00;37.50;;;;;;8333644;28;20028;-45
2022/12/21 00:07:32;;;;;;;;;;;16.00;37.50;;;;;;8333389;28;20039;-45
2022/12/21 00:11:33;;;;;;;;;;;16.00;37.50;;;;;;8333388;28;20399;-46
2022/12/21 00:15:34;;;;;;;;;;;16.00;37.50;;;;;;8333417;28;20297;-45
2022/12/21 00:19:34;;;;;;;;;;;16.00;37.60;;;;;;8332819;28;19932;-45
2022/12/21 00:23:35;;;;;;;;;;;16.00;38.10;;;;;;8333302;28;19960;-45
2022/12/21 00:27:35;;;;;;;;;;;16.00;37.60;;;;;;8333286;28;19913;-45
2022/12/21 00:31:39;;;;;;;;;;;16.00;37.60;;;;;;8332405;28;19927;-46
2022/12/21 00:35:39;;;;;;;;;;;16.00;37.60;;;;;;8332996;28;19917;-46
2022/12/21 00:39:40;;;;;;;;;;;16.00;37.60;;;;;;8332600;28;19970;-46
2022/12/21 00:43:41;;;;;;;;;;;16.00;37.60;;;;;;8331997;28;19925;-46
2022/12/21 00:47:42;;;;;;;;;;;16.00;37.60;;;;;;8332790;28;19913;-48
2022/12/21 00:51:42;;;;;;;;;;;15.90;37.60;;;;;;8332488;28;19948;-46
2022/12/21 00:55:59;;;;;;;;;;;16.00;37.60;;;;;;8331558;28;20365;-45
2022/12/21 00:59:59;;;;;;;;;;;15.90;37.60;;;;;;8332003;28;20319;-48
2022/12/21 01:04:00;;;;;;;;;;;15.90;37.60;;;;;;8331823;28;19921;-46
2022/12/21 01:08:00;;;;;;;;;;;15.90;37.60;;;;;;8331413;28;19920;-46
2022/12/21 01:12:01;;;;;;;;;;;15.90;37.60;;;;;;8331661;28;19917;-47
2022/12/21 01:16:01;;;;;;;;;;;15.90;37.60;;;;;;8331384;28;19995;-46
2022/12/21 01:20:02;;;;;;;;;;;15.90;37.70;;;;;;8330664;28;19925;-47
2022/12/21 01:24:02;;;;;;;;;;;15.90;37.70;;;;;;8330996;28;20389;-45
2022/12/21 01:28:03;;;;;;;;;;;15.90;37.70;;;;;;8331633;28;19917;-45
2022/12/21 01:32:04;;;;;;;;;;;15.90;37.70;;;;;;8330388;28;19917;-45
2022/12/21 01:36:08;;;;;;;;;;;16.00;37.70;;;;;;8330690;28;19921;-46
2022/12/21 01:40:10;;;;;;;;;;;16.00;37.70;;;;;;8330310;28;20440;-45
2022/12/21 01:44:29;;;;;;;;;;;16.00;37.60;;;;;;8330922;28;20294;-45
2022/12/21 01:48:33;;;;;;;;;;;16.00;37.60;;;;;;8330624;28;19920;-44
2022/12/21 01:52:33;;;;;;;;;;;16.00;37.60;;;;;;8330551;28;19922;-45
2022/12/21 01:56:36;;;;;;;;;;;16.00;37.60;;;;;;8330446;28;19940;-44
2022/12/21 02:00:38;;;;;;;;;;;16.00;37.60;;;;;;8330297;28;19961;-45
2022/12/21 02:04:39;;;;;;;;;;;16.10;37.60;;;;;;8329865;28;20332;-44
2022/12/21 02:08:40;;;;;;;;;;;16.00;37.60;;;;;;8329278;28;19947;-45
2022/12/21 02:12:41;;;;;;;;;;;16.00;37.60;;;;;;8330124;28;19928;-44
2022/12/21 02:16:45;;;;;;;;;;;16.00;37.60;;;;;;8329631;28;20377;-46
2022/12/21 02:20:54;;;;;;;;;;;16.00;37.60;;;;;;8329808;28;19932;-46
2022/12/21 02:25:01;;;;;;;;;;;16.00;37.60;;;;;;8329796;28;20008;-45
2022/12/21 02:29:04;;;;;;;;;;;16.00;37.70;;;;;;8329824;28;19917;-45
2022/12/21 02:33:16;;;;;;;;;;;16.00;37.70;;;;;;8329992;28;19918;-45
2022/12/21 02:37:23;;;;;;;;;;;16.00;37.60;;;;;;8329516;28;19921;-45
2022/12/21 02:41:42;;;;;;;;;;;16.00;37.70;;;;;;8329684;28;19928;-45
2022/12/21 02:45:47;;;;;;;;;;;16.00;37.70;;;;;;8329664;28;19924;-46
2022/12/21 02:49:54;;;;;;;;;;;16.00;37.70;;;;;;8329170;28;19960;-46
2022/12/21 02:53:54;;;;;;;;;;;16.00;37.70;;;;;;8329634;28;19928;-46
2022/12/21 02:58:15;;;;;;;;;;;16.00;37.70;;;;;;8329557;28;19925;-45
2022/12/21 03:02:42;;;;;;;;;;;15.90;37.70;;;;;;8329364;28;19917;-46
2022/12/21 03:07:02;;;;;;;;;;;15.90;37.70;;;;;;8320827;28;19924;-46
2022/12/21 03:11:03;;;;;;;;;;;15.90;37.80;;;;;;8328797;28;19924;-46
2022/12/21 03:15:23;;;;;;;;;;;15.90;37.80;;;;;;8329131;28;19953;-47
2022/12/21 03:19:42;;;;;;;;;;;15.90;37.80;;;;;;8328616;28;19988;-45
2022/12/21 03:24:05;;;;;;;;;;;15.90;37.80;;;;;;8330451;28;20497;-47
2022/12/21 03:28:11;;;;;;;;;;;15.90;37.80;;;;;;8301503;28;20283;-43
2022/12/21 03:32:13;;;;;;;;;;;15.90;37.80;;;;;;8326993;28;19933;-44
2022/12/21 03:36:16;;;;;;;;;;;15.90;37.80;;;;;;8334527;28;19913;-46
2022/12/21 03:40:20;;;;;;;;;;;15.90;37.80;;;;;;8334060;28;19987;-46
2022/12/21 03:44:25;;;;;;;;;;;16.00;37.80;;;;;;8334273;28;19918;-45
2022/12/21 03:48:44;;;;;;;;;;;16.00;37.80;;;;;;8334332;28;19953;-46
2022/12/21 03:53:08;;;;;;;;;;;16.00;37.80;;;;;;8333920;28;19961;-46
2022/12/21 03:57:09;;;;;;;;;;;16.00;37.70;;;;;;8330816;28;19917;-46
2022/12/21 04:01:19;;;;;;;;;;;16.00;37.70;;;;;;8333237;28;20346;-45
2022/12/21 04:05:38;;;;;;;;;;;16.00;37.70;;;;;;8333672;28;20336;-46
2022/12/21 04:09:39;;;;;;;;;;;16.00;37.70;;;;;;8333531;28;20011;-46
2022/12/21 04:13:39;;;;;;;;;;;16.00;37.70;;;;;;8333489;28;19917;-45
2022/12/21 04:17:40;;;;;;;;;;;16.00;37.70;;;;;;8333011;28;19924;-45
2022/12/21 04:21:41;;;;;;;;;;;16.00;37.70;;;;;;8333169;28;19913;-45
2022/12/21 04:30:00;;;;;;;;;;;16.00;37.70;;;;;;8333315;28;19936;-45
2022/12/21 04:34:01;;;;;;;;;;;16.00;37.70;;;;;;8332781;28;19992;-45
2022/12/21 04:38:02;;;;;;;;;;;16.10;37.80;;;;;;8332040;28;19928;-44
2022/12/21 04:42:02;;;;;;;;;;;16.00;38.30;;;;;;8332503;28;20003;-46
2022/12/21 04:46:08;;;;;;;;;;;16.10;37.80;;;;;;8332408;28;20366;-45
2022/12/21 04:50:08;;;;;;;;;;;16.00;37.80;;;;;;8332220;28;20298;-46
2022/12/21 04:54:09;;;;;;;;;;;16.00;38.00;;;;;;8332243;28;19943;-45
2022/12/21 04:58:09;;;;;;;;;;;16.00;37.80;;;;;;8331404;28;19931;-45
2022/12/21 05:02:10;;;;;;;;;;;16.00;37.80;;;;;;8330549;28;19917;-45
2022/12/21 05:06:11;;;;;;;;;;;16.00;37.80;;;;;;8332014;28;19920;-44
2022/12/21 05:10:11;;;;;;;;;;;16.00;38.30;;;;;;8330158;28;19917;-45
2022/12/21 05:14:12;;;;;;;;;;;16.00;37.80;;;;;;8331696;28;20393;-45
2022/12/21 05:18:13;;;;;;;;;;;16.00;37.80;;;;;;8331210;28;19925;-45
2022/12/21 05:22:16;;;;;;;;;;;16.00;37.80;;;;;;8330796;28;19923;-45
2022/12/21 05:26:17;;;;;;;;;;;16.00;37.80;;;;;;8331115;28;20000;-45
2022/12/21 05:30:18;;;;;;;;;;;16.00;37.90;;;;;;8331112;28;19925;-45
2022/12/21 05:34:18;;;;;;;;;;;16.00;37.90;;;;;;8330822;28;19913;-46
2022/12/21 05:38:19;;;;;;;;;;;16.00;37.90;;;;;;8330670;28;19925;-46
2022/12/21 05:42:19;;;;;;;;;;;16.00;37.90;;;;;;8330737;28;19921;-46
2022/12/21 05:46:19;;;;;;;;;;;16.00;37.90;;;;;;8329501;28;19969;-45
2022/12/21 05:50:20;;;;;;;;;;;15.90;37.90;;;;;;8330568;28;19920;-44
2022/12/21 05:54:21;;;;;;;;;;;16.00;38.00;;;;;;8330744;28;19924;-45
2022/12/21 05:58:21;;;;;;;;;;;16.00;38.00;;;;;;8329919;28;20293;-44
2022/12/21 06:02:21;;;;;;;;;;;15.90;37.90;;;;;;8330729;28;19924;-44
2022/12/21 06:06:22;;;;;;;;;;;15.90;38.00;;;;;;8330362;28;19952;-45
2022/12/21 06:10:22;;;;;;;;;;;15.90;38.00;;;;;;8329862;28;19956;-45
2022/12/21 06:14:23;;;;;;;;;;;15.90;38.00;;;;;;8330429;28;19991;-45
2022/12/21 06:18:23;;;;;;;;;;;15.90;38.00;;;;;;8329992;28;20390;-45
2022/12/21 06:22:23;;;;;;;;;;;15.90;38.00;;;;;;8329670;28;20012;-45
2022/12/21 06:26:24;;;;;;;;;;;15.90;38.00;;;;;;8329853;28;19917;-45
2022/12/21 06:30:24;;;;;;;;;;;15.90;38.00;;;;;;8329998;28;19920;-45
2022/12/21 06:34:25;;;;;;;;;;;15.90;38.00;;;;;;8329608;28;19956;-46
2022/12/21 06:38:26;;;;;;;;;;;16.00;38.00;;;;;;8329847;28;19983;-46
2022/12/21 06:42:26;;;;;;;;;;;16.00;38.00;;;;;;8329828;28;20016;-46
2022/12/21 06:46:27;;;;;;;;;;;16.00;37.90;;;;;;8329082;28;20024;-44
2022/12/21 06:50:27;;;;;;;;;;;16.00;37.90;;;;;;8329517;28;19920;-46
2022/12/21 06:54:27;;;;;;;;;;;16.00;37.90;;;;;;8329809;28;19963;-44
2022/12/21 06:58:28;;;;;;;;;;;16.10;38.00;;;;;;8330936;28;20374;-44
2022/12/21 07:02:29;;;;;;;;;;;16.10;38.50;;;;;;8335841;28;19949;-45
2022/12/21 07:06:31;;;;;;;;;;;16.00;37.90;;;;;;8335449;28;19948;-45
2022/12/21 07:10:31;;;;;;;;;;;16.00;37.90;;;;;;8335082;28;19920;-44
2022/12/21 07:14:31;;;;;;;;;;;16.00;37.90;;;;;;8335094;28;20263;-44
2022/12/21 07:18:32;;;;;;;;;;;16.00;37.90;;;;;;8334956;28;19931;-44
2022/12/21 07:22:33;;;;;;;;;;;16.10;38.00;;;;;;8334621;28;19917;-46
2022/12/21 07:26:33;;;;;;;;;;;16.10;38.00;;;;;;8334747;28;19964;-45
2022/12/21 07:30:34;;;;;;;;;;;16.00;38.00;;;;;;8334891;28;19914;-44
2022/12/21 07:34:34;;;;;;;;;;;16.00;38.00;;;;;;8334351;28;19917;-45
2022/12/21 07:38:36;;;;;;;;;;;16.00;38.00;;;;;;8334655;28;19925;-45
2022/12/21 07:42:36;;;;;;;;;;;16.00;38.10;;;;;;8334369;28;20327;-45
2022/12/21 07:46:36;;;;;;;;;;;16.00;38.10;;;;;;8333802;28;19963;-44
2022/12/21 07:50:37;;;;;;;;;;;16.00;38.10;;;;;;8334686;28;20016;-45
2022/12/21 07:54:37;;;;;;;;;;;16.00;38.20;;;;;;8334048;28;20366;-44
2022/12/21 07:58:38;;;;;;;;;;;16.00;38.10;;;;;;8333392;28;19925;-45
2022/12/21 08:02:38;;;;;;;;;;;16.00;38.20;;;;;;8333704;28;19959;-46
2022/12/21 08:06:39;;;;;;;;;;;16.00;38.20;;;;;;8333662;28;19917;-45
2022/12/21 08:10:43;;;;;;;;;;;16.00;38.20;;;;;;8316783;28;19917;-44
2022/12/21 08:14:44;;;;;;;;;;;16.00;38.20;;;;;;8330910;28;19924;-45
2022/12/21 08:18:45;;;;;;;;;;;16.00;38.20;;;;;;8333293;28;19925;-45
2022/12/21 08:22:45;;;;;;;;;;;16.00;38.20;;;;;;8332630;28;19917;-46
2022/12/21 08:26:46;;;;;;;;;;;15.90;38.20;;;;;;8332885;28;19917;-45
2022/12/21 08:30:46;;;;;;;;;;;16.00;38.30;;;;;;8333182;28;19913;-45
2022/12/21 08:34:47;;;;;;;;;;;16.00;38.30;;;;;;8332568;28;19925;-45
2022/12/21 08:38:47;;;;;;;;;;;16.00;38.20;;;;;;8332480;28;19929;-45
2022/12/21 08:42:48;;;;;;;;;;;15.90;38.30;;;;;;8332157;28;20289;-44
2022/12/21 08:46:48;;;;;;;;;;;16.00;38.30;;;;;;8331806;28;19924;-45
2022/12/21 08:50:52;;;;;;;;;;;15.90;38.30;;;;;;8332367;28;19928;-46
2022/12/21 08:54:52;;;;;;;;;;;15.90;38.30;;;;;;8332007;28;19921;-43
2022/12/21 08:58:53;;;;;;;;;;;16.00;38.40;;;;;;8331330;28;19929;-44
2022/12/21 09:02:53;;;;;;;;;;;16.00;38.30;;;;;;8332009;28;19917;-45
2022/12/21 09:06:54;;;;;;;;;;;16.00;38.40;;;;;;8331727;28;19917;-44
2022/12/21 09:11:04;;;;;;;;;;;16.10;38.40;;;;;;8331370;28;19967;-45
2022/12/21 09:15:05;;;;;;;;;;;16.10;38.40;;;;;;8331493;28;19917;-46
2022/12/21 09:19:05;;;;;;;;;;;16.10;38.30;;;;;;8331266;28;20252;-45
2022/12/21 09:23:06;;;;;;;;;;;16.10;38.20;;;;;;8329900;28;19928;-45
2022/12/21 09:27:06;;;;;;;;;;;16.10;38.30;;;;;;8331132;28;19996;-45
2022/12/21 09:31:08;;;;;;;;;;;16.20;38.40;;;;;;8330706;28;19921;-43
2022/12/21 09:35:10;;;;;;;;;;;16.20;38.30;;;;;;8331264;28;19917;-46
2022/12/21 09:39:11;;;;;;;;;;;16.20;38.30;;;;;;8331063;28;20322;-45
2022/12/21 09:43:23;;;;;;;;;;;16.10;38.40;;;;;;8330282;28;20397;-45
2022/12/21 09:47:29;;;;;;;;;;;16.10;38.30;;;;;;8330938;28;20396;-45
2022/12/21 09:51:31;;;;;;;;;;;16.10;38.30;;;;;;8331037;28;19928;-45
2022/12/21 09:55:34;;;;;;;;;;;16.10;38.40;;;;;;8330010;28;19918;-45
2022/12/21 09:59:35;;;;;;;;;;;16.10;38.40;;;;;;8330158;28;19929;-45
2022/12/21 10:03:35;;;;;;;;;;;16.10;38.40;;;;;;8330191;28;19964;-45
2022/12/21 10:07:51;;;;;;;;;;;16.10;38.40;;;;;;8329802;28;20001;-45
2022/12/21 10:11:56;;;;;;;;;;;16.10;38.40;;;;;;8330428;28;20456;-44
2022/12/21 10:16:08;;;;;;;;;;;16.10;38.50;;;;;;8329129;28;19920;-45
2022/12/21 10:20:29;;;;;;;;;;;16.10;38.40;;;;;;8329914;28;19925;-45
2022/12/21 10:24:36;;;;;;;;;;;16.10;38.50;;;;;;8330236;28;20381;-46
2022/12/21 10:28:55;;;;;;;;;;;16.10;38.50;;;;;;8329413;28;20378;-44
2022/12/21 10:32:57;;;;;;;;;;;16.10;38.50;;;;;;8331142;28;20004;-45
2022/12/21 10:37:05;;;;;;;;;;;16.10;38.50;;;;;;8336804;28;20354;-45
2022/12/21 10:41:08;;;;;;;;;;;16.10;38.50;;;;;;8335873;28;19925;-45
2022/12/21 10:45:13;;;;;;;;;;;16.10;38.60;;;;;;8336372;28;19924;-45
2022/12/21 10:49:21;;;;;;;;;;;16.10;38.60;;;;;;8335824;28;19918;-45
2022/12/21 10:53:21;;;;;;;;;;;16.10;38.60;;;;;;8336091;28;19921;-44
2022/12/21 10:57:25;;;;;;;;;;;16.10;38.60;;;;;;8335639;28;20290;-46
2022/12/21 11:01:28;;;;;;;;;;;16.10;38.60;;;;;;8335770;28;20282;-44
2022/12/21 11:05:37;;;;;;;;;;;16.10;38.60;;;;;;8329616;28;20013;-44
2022/12/21 11:09:39;;;;;;;;;;;16.10;38.60;;;;;;8322338;28;19924;-46
2022/12/21 11:13:39;;;;;;;;;;;16.10;38.60;;;;;;8334752;28;19924;-45
2022/12/21 11:17:43;;;;;;;;;;;16.10;38.60;;;;;;8334971;28;19917;-45
2022/12/21 11:21:48;;;;;;;;;;;16.10;38.60;;;;;;8334004;28;19928;-45
2022/12/21 11:25:49;;;;;;;;;;;16.10;38.60;;;;;;8334441;28;20011;-45
2022/12/21 11:29:51;;;;;;;;;;;16.10;38.70;;;;;;8334760;28;19971;-45
2022/12/21 11:33:51;;;;;;;;;;;16.10;38.70;;;;;;8334819;28;19913;-45
2022/12/21 11:37:53;;;;;;;;;;;16.10;38.70;;;;;;8333836;28;19918;-44
2022/12/21 11:41:54;;;;;;;;;;;16.10;38.70;;;;;;8335043;28;19913;-45
2022/12/21 11:45:54;;;;;;;;;;;16.10;38.70;;;;;;8333272;28;20008;-45
2022/12/21 11:50:07;;;;;;;;;;;16.10;38.70;;;;;;8333626;28;19917;-45
2022/12/21 11:54:10;;;;;;;;;;;16.10;38.70;;;;;;8334540;28;19937;-45
2022/12/21 11:58:19;;;;;;;;;;;16.10;38.70;;;;;;8333782;28;19968;-44
2022/12/21 12:02:34;;;;;;;;;;;16.20;38.80;;;;;;8335070;28;19916;-45
2022/12/21 12:06:53;;;;;;;;;;;16.20;38.80;;;;;;8334177;28;19921;-44
2022/12/21 12:11:11;;;;;;;;;;;16.20;38.80;;;;;;8333991;28;19917;-45
2022/12/21 12:15:12;;;;;;;;;;;16.20;38.80;;;;;;8333793;28;19939;-46
2022/12/21 12:19:22;;;;;;;;;;;16.10;38.80;;;;;;8333081;28;19925;-45
2022/12/21 12:23:27;;;;;;;;;;;16.20;38.90;;;;;;8333554;28;19924;-45
2022/12/21 12:27:46;;;;;;;;;;;16.20;38.90;;;;;;8332974;28;20362;-44
2022/12/21 12:31:57;;;;;;;;;;;16.20;38.90;;;;;;8332654;28;20409;-45
2022/12/21 12:36:15;;;;;;;;;;;16.20;38.90;;;;;;8332679;28;19952;-46
2022/12/21 12:40:28;;;;;;;;;;;16.20;38.90;;;;;;8331946;28;19925;-46
2022/12/21 12:44:47;;;;;;;;;;;16.20;39.00;;;;;;8332693;28;20265;-45
2022/12/21 12:48:47;;;;;;;;;;;16.20;38.90;;;;;;8332213;28;19921;-47
2022/12/21 12:53:05;;;;;;;;;;;16.20;38.90;;;;;;8332157;28;20274;-46
2022/12/21 12:57:20;;;;;;;;;;;16.20;38.90;;;;;;8332215;28;20310;-45
2022/12/21 13:01:21;;;;;;;;;;;16.20;39.00;;;;;;8331452;28;19925;-47
2022/12/21 13:05:30;;;;;;;;;;;16.20;39.50;;;;;;8331287;28;21540;-45
2022/12/21 13:09:36;;;;;;;;;;;16.20;39.00;;;;;;8331436;28;19914;-45
2022/12/21 13:13:41;;;;;;;;;;;16.20;39.00;;;;;;8331074;28;19918;-48
2022/12/21 13:18:00;;;;;;;;;;;16.20;39.10;;;;;;8331540;28;20259;-45
2022/12/21 13:22:03;;;;;;;;;;;16.20;39.00;;;;;;8331250;28;19921;-46
2022/12/21 13:26:11;;;;;;;;;;;16.20;39.10;;;;;;8330782;28;19917;-47
2022/12/21 13:30:20;;;;;;;;;;;16.20;39.10;;;;;;8331447;28;19959;-45
2022/12/21 13:34:27;;;;;;;;;;;16.20;39.10;;;;;;8330853;28;20389;-44
2022/12/21 13:38:31;;;;;;;;;;;16.20;39.10;;;;;;8330851;28;19921;-44
2022/12/21 13:42:37;;;;;;;;;;;16.20;39.10;;;;;;8330924;28;19925;-46
2022/12/21 13:46:39;;;;;;;;;;;16.20;39.10;;;;;;8330272;28;19917;-45
2022/12/21 13:50:58;;;;;;;;;;;16.20;39.10;;;;;;8330821;28;19929;-45
2022/12/21 13:55:04;;;;;;;;;;;16.20;39.10;;;;;;8330524;28;19965;-46
2022/12/21 13:59:23;;;;;;;;;;;16.20;39.10;;;;;;8329701;28;19925;-45
2022/12/21 14:03:34;;;;;;;;;;;16.20;39.20;;;;;;8330426;28;20397;-45
2022/12/21 14:07:54;;;;;;;;;;;16.20;39.20;;;;;;8305808;28;19963;-46
2022/12/21 14:12:01;;;;;;;;;;;16.20;39.20;;;;;;8326240;28;20290;-46
2022/12/21 14:16:03;;;;;;;;;;;16.20;39.20;;;;;;8329997;28;19917;-45
2022/12/21 14:20:09;;;;;;;;;;;16.20;39.20;;;;;;8329477;28;19929;-45
2022/12/21 14:24:30;;;;;;;;;;;16.20;39.20;;;;;;8329800;28;20258;-46
2022/12/21 14:28:32;;;;;;;;;;;16.20;39.70;;;;;;8329276;28;19914;-47
2022/12/21 14:32:32;;;;;;;;;;;16.20;39.80;;;;;;8329655;28;19959;-45
2022/12/21 14:36:33;;;;;;;;;;;16.20;39.20;;;;;;8329691;28;19917;-47
2022/12/21 14:40:52;;;;;;;;;;;16.30;39.30;;;;;;8329118;28;19925;-44
2022/12/21 14:45:11;;;;;;;;;;;16.20;39.30;;;;;;8329465;28;20278;-45
2022/12/21 14:49:28;;;;;;;;;;;16.20;39.30;;;;;;8329017;28;20450;-44
2022/12/21 14:53:30;;;;;;;;;;;16.30;39.30;;;;;;8329980;28;19956;-48
2022/12/21 14:57:38;;;;;;;;;;;16.30;39.30;;;;;;8329724;28;20370;-45
2022/12/21 15:01:53;;;;;;;;;;;16.30;39.30;;;;;;8328785;28;19987;-45
2022/12/21 15:06:03;;;;;;;;;;;16.30;39.30;;;;;;8329540;28;19956;-47
2022/12/21 15:10:09;;;;;;;;;;;16.30;39.40;;;;;;8329070;28;20289;-45
2022/12/21 15:14:24;;;;;;;;;;;16.30;39.40;;;;;;8329232;28;20004;-45
2022/12/21 15:18:25;;;;;;;;;;;16.30;39.30;;;;;;8329906;28;20378;-46
2022/12/21 15:22:42;;;;;;;;;;;16.30;39.40;;;;;;8334639;28;20114;-45
2022/12/21 15:27:02;;;;;;;;;;;16.20;39.40;;;;;;8334681;28;19928;-44
2022/12/21 15:31:06;;;;;;;;;;;16.30;39.40;;;;;;8334799;28;19940;-44
2022/12/21 15:35:25;;;;;;;;;;;16.30;39.40;;;;;;8334561;28;20302;-44
2022/12/21 15:39:28;;;;;;;;;;;16.30;39.40;;;;;;8334622;28;19933;-44
2022/12/21 15:43:32;;;;;;;;;;;16.30;39.40;;;;;;8334197;28;20002;-45
2022/12/21 15:47:32;;;;;;;;;;;16.30;39.40;;;;;;8334234;28;19924;-45
2022/12/21 15:51:37;;;;;;;;;;;16.30;39.40;;;;;;8334439;28;20235;-45
2022/12/21 15:55:38;;;;;;;;;;;16.30;39.40;;;;;;8333591;28;19918;-46
2022/12/21 15:59:39;;;;;;;;;;;16.30;39.40;;;;;;8333790;28;19935;-45
2022/12/21 16:03:40;;;;;;;;;;;16.30;39.40;;;;;;8334268;28;19956;-45
2022/12/21 16:07:43;;;;;;;;;;;16.30;39.50;;;;;;8333109;28;20012;-45
2022/12/21 16:11:44;;;;;;;;;;;16.30;39.50;;;;;;8333532;28;19940;-45
2022/12/21 16:15:44;;;;;;;;;;;16.30;39.50;;;;;;8333340;28;19917;-46
2022/12/21 16:19:49;;;;;;;;;;;16.30;39.40;;;;;;8332852;28;19925;-44
2022/12/21 16:23:51;;;;;;;;;;;16.30;39.50;;;;;;8333533;28;19936;-46
2022/12/21 16:27:51;;;;;;;;;;;16.30;39.50;;;;;;8333075;28;19917;-44
2022/12/21 16:31:52;;;;;;;;;;;16.30;39.50;;;;;;8331884;28;19927;-47
2022/12/21 16:35:58;;;;;;;;;;;16.30;39.50;;;;;;8332970;28;19984;-45
2022/12/21 16:40:00;;;;;;;;;;;16.30;39.50;;;;;;8332585;28;19936;-45
2022/12/21 16:44:00;;;;;;;;;;;16.30;39.50;;;;;;8332309;28;20375;-45
2022/12/21 16:48:07;;;;;;;;;;;16.30;39.50;;;;;;8332297;28;19917;-45
2022/12/21 16:52:27;;;;;;;;;;;16.30;39.60;;;;;;8323433;28;19921;-43
2022/12/21 16:56:29;;;;;;;;;;;16.30;39.80;;;;;;8313666;28;19921;-45
2022/12/21 17:00:32;;;;;;;;;;;16.30;39.90;;;;;;8326091;28;19933;-45
2022/12/21 17:04:34;;;;;;;;;;;16.30;40.30;;;;;;8317558;28;20358;-45
2022/12/21 17:08:40;;;;;;;;;;;16.40;41.00;;;;;;8295104;28;19918;-47
2022/12/21 17:12:42;;;;;;;;;;;16.50;40.80;;;;;;8323389;28;19940;-46
2022/12/21 17:17:02;;;;;;;;;;;16.60;40.70;;;;;;8331230;28;19957;-45
2022/12/21 17:21:03;;;;;;;;;;;16.70;40.70;;;;;;8331391;28;19925;-46
2022/12/21 17:25:12;;;;;;;;;;;16.80;40.60;;;;;;8331234;28;19917;-45
2022/12/21 17:29:13;;;;;;;;;;;16.90;40.50;;;;;;8330907;28;19913;-44
2022/12/21 17:33:18;;;;;;;;;;;16.90;40.40;;;;;;8331012;28;20379;-45
2022/12/21 17:37:21;;;;;;;;;;;17.00;40.50;;;;;;8330354;28;19943;-44
2022/12/21 17:41:21;;;;;;;;;;;17.10;40.50;;;;;;8330599;28;20341;-45
2022/12/21 17:45:26;;;;;;;;;;;17.10;40.10;;;;;;8328020;28;19917;-45
2022/12/21 17:49:26;;;;;;;;;;;17.20;40.30;;;;;;8319540;28;20302;-46
2022/12/21 17:53:28;;;;;;;;;;;17.20;40.20;;;;;;8330674;28;19921;-45
2022/12/21 17:57:29;;;;;;;;;;;17.40;40.50;;;;;;8323297;28;19921;-46
2022/12/21 18:01:29;;;;;;;;;;;17.40;40.60;;;;;;8317171;28;19941;-46
2022/12/21 18:05:30;;;;;;;;;;;17.50;40.60;;;;;;8328223;28;19921;-45
2022/12/21 18:09:30;;;;;;;;;;;17.60;40.60;;;;;;8325013;28;20298;-46
2022/12/21 18:13:31;;;;;;;;;;;17.60;40.60;;;;;;8317763;28;19925;-45
2022/12/21 18:17:31;;;;;;;;;;;17.70;40.70;;;;;;8317061;28;20000;-44
2022/12/21 18:21:32;;;;;;;;;;;17.70;40.70;;;;;;8327965;28;20286;-44
2022/12/21 18:25:32;;;;;;;;;;;17.80;40.70;;;;;;8325076;28;19924;-47
2022/12/21 18:29:33;;;;;;;;;;;17.90;40.40;;;;;;8329768;28;19921;-45
2022/12/21 18:33:37;;;;;;;;;;;17.90;40.60;;;;;;8329715;28;20023;-46
2022/12/21 18:37:37;;;;;;;;;;;17.90;40.40;;;;;;8329304;28;19917;-46
2022/12/21 18:41:37;;;;;;;;;;;17.90;40.20;;;;;;8329469;28;19925;-45
2022/12/21 18:45:38;;;;;;;;;;;17.90;40.30;;;;;;8329609;28;19959;-46
2022/12/21 18:49:38;;;;;;;;;;;17.90;40.10;;;;;;8329021;28;20007;-46
2022/12/21 18:53:39;;;;;;;;;;;18.00;40.30;;;;;;8330556;28;19929;-45
2022/12/21 18:57:39;;;;;;;;;;;18.10;40.30;;;;;;8335947;28;19913;-47
2022/12/21 19:01:40;;;;;;;;;;;18.00;40.30;;;;;;8335158;28;20113;-46
2022/12/21 19:05:40;;;;;;;;;;;18.10;40.30;;;;;;8336155;28;20319;-45
2022/12/21 19:09:42;;;;;;;;;;;18.10;40.20;;;;;;8335712;28;19921;-45
2022/12/21 19:13:43;;;;;;;;;;;18.20;40.30;;;;;;8334858;28;19918;-45
2022/12/21 19:17:44;;;;;;;;;;;18.20;40.30;;;;;;8335181;28;19940;-46
2022/12/21 19:21:46;;;;;;;;;;;18.20;40.20;;;;;;8335128;28;19921;-46
2022/12/21 19:25:47;;;;;;;;;;;18.20;40.10;;;;;;8334541;28;19917;-45
2022/12/21 19:29:47;;;;;;;;;;;18.30;40.20;;;;;;8335438;28;19917;-45
2022/12/21 19:33:48;;;;;;;;;;;18.30;40.10;;;;;;8334621;28;20298;-45
2022/12/21 19:37:50;;;;;;;;;;;18.30;40.00;;;;;;8334052;28;20369;-45
2022/12/21 19:41:51;;;;;;;;;;;18.30;40.00;;;;;;8334584;28;19921;-45
2022/12/21 19:45:51;;;;;;;;;;;18.40;40.10;;;;;;8334234;28;19932;-46
2022/12/21 19:49:52;;;;;;;;;;;18.40;40.10;;;;;;8333911;28;20013;-45
2022/12/21 19:53:53;;;;;;;;;;;18.40;40.10;;;;;;8334253;28;20187;-45
2022/12/21 19:57:55;;;;;;;;;;;18.40;39.90;;;;;;8333891;28;20413;-46
2022/12/21 20:01:56;;;;;;;;;;;18.50;40.00;;;;;;8333475;28;19931;-46
2022/12/21 20:05:57;;;;;;;;;;;18.50;40.10;;;;;;8332748;28;19940;-45
2022/12/21 20:09:57;;;;;;;;;;;18.50;40.10;;;;;;8323626;28;19918;-45
2022/12/21 20:13:58;;;;;;;;;;;18.50;40.10;;;;;;8325977;28;19948;-45
2022/12/21 20:17:59;;;;;;;;;;;18.60;40.00;;;;;;8333205;28;20015;-47
2022/12/21 20:21:59;;;;;;;;;;;18.60;40.00;;;;;;8333265;28;19917;-45
2022/12/21 20:25:59;;;;;;;;;;;18.60;39.80;;;;;;8332665;28;20043;-46
2022/12/21 20:30:01;;;;;;;;;;;18.70;39.80;;;;;;8333241;28;19971;-45
2022/12/21 20:34:01;;;;;;;;;;;18.60;39.80;;;;;;8332971;28;19917;-46
2022/12/21 20:38:09;;;;;;;;;;;18.70;39.80;;;;;;8332585;28;20392;-45
2022/12/21 20:46:42;;;;;;;;;;;18.70;39.80;;;;;;8333366;28;19971;-45
2022/12/21 20:50:44;;;;;;;;;;;18.80;39.80;;;;;;8332908;28;19968;-45
2022/12/21 20:54:44;;;;;;;;;;;18.80;39.90;;;;;;8332686;28;20397;-45
2022/12/21 20:58:44;;;;;;;;;;;18.80;39.90;;;;;;8331452;28;19925;-46
2022/12/21 21:02:45;;;;;;;;;;;18.80;39.90;;;;;;8331951;28;20019;-45
2022/12/21 21:06:45;;;;;;;;;;;18.90;39.90;;;;;;8331907;28;19928;-46
2022/12/21 21:10:46;;;;;;;;;;;18.90;39.70;;;;;;8331670;28;20012;-45
2022/12/21 21:14:46;;;;;;;;;;;18.90;39.60;;;;;;8332115;28;19917;-45
2022/12/21 21:18:47;;;;;;;;;;;18.90;39.70;;;;;;8331290;28;19925;-45
2022/12/21 21:23:02;;;;;;;;;;;18.90;39.60;;;;;;8329050;28;19932;-46
2022/12/21 21:27:03;;;;;;;;;;;18.90;39.60;;;;;;8331304;28;20002;-45
2022/12/21 21:31:03;;;;;;;;;;;18.90;39.70;;;;;;8331231;28;19914;-46
2022/12/21 21:35:04;;;;;;;;;;;18.90;39.80;;;;;;8330619;28;20306;-46
2022/12/21 21:43:25;;;;;;;;;;;18.80;39.70;;;;;;8332683;28;19924;-47
2022/12/21 21:47:33;;;;;;;;;;;18.80;39.80;;;;;;8331056;28;19918;-47
2022/12/21 21:51:34;;;;;;;;;;;18.80;39.70;;;;;;8330979;28;19921;-47
2022/12/21 21:55:34;;;;;;;;;;;18.70;39.70;;;;;;8330324;28;20032;-46
2022/12/21 21:59:36;;;;;;;;;;;18.70;39.70;;;;;;8330251;28;19925;-47
2022/12/21 22:03:36;;;;;;;;;;;18.70;39.70;;;;;;8330292;28;20000;-46
2022/12/21 22:07:37;;;;;;;;;;;18.60;39.70;;;;;;8330287;28;19921;-47
2022/12/21 22:11:48;;;;;;;;;;;18.60;39.70;;;;;;8330208;28;19959;-46
2022/12/21 22:15:51;;;;;;;;;;;18.60;39.70;;;;;;8330493;28;20381;-46
2022/12/21 22:32:51;;;;;;;;;;;18.50;39.80;;;;;;8339997;28;19964;-44
2022/12/21 22:45:30;;;;;;;;;;;18.40;39.70;;;;;;8338796;28;20293;-46
2022/12/21 22:49:30;;;;;;;;;;;18.50;39.80;;;;;;8335784;28;19917;-47
2022/12/21 22:53:36;;;;;;;;;;;18.50;39.80;;;;;;8336397;28;20059;-46
2022/12/21 22:57:36;;;;;;;;;;;18.40;39.70;;;;;;8335957;28;20473;-46
2022/12/21 23:01:37;;;;;;;;;;;18.40;39.70;;;;;;8334749;28;19948;-46
2022/12/21 23:05:38;;;;;;;;;;;18.40;39.70;;;;;;8333356;28;20266;-46
2022/12/21 23:09:38;;;;;;;;;;;18.40;39.70;;;;;;8335741;28;19921;-46
2022/12/21 23:43:46;;;;;;;;;;;18.30;39.70;;;;;;8334578;28;19988;-46
